createdAt,value
2023-02-11T00:01:09.531Z,10.40
2023-02-11T00:03:38.148Z,10.80
2023-02-11T00:06:10.730Z,10.50
2023-02-11T00:08:38.530Z,9.10
2023-02-11T00:11:05.340Z,10.00
2023-02-11T00:13:32.199Z,9.20
2023-02-11T00:15:59.134Z,10.10
2023-02-11T00:18:25.907Z,10.70
2023-02-11T00:20:52.637Z,10.00
2023-02-11T00:23:19.644Z,9.80
2023-02-11T00:25:46.307Z,8.70
2023-02-11T00:28:13.030Z,9.80
2023-02-11T00:30:40.646Z,9.40
2023-02-11T00:33:08.195Z,8.20
2023-02-11T00:35:38.323Z,9.80
2023-02-11T00:38:08.101Z,9.10
2023-02-11T00:40:34.850Z,9.40
2023-02-11T00:43:03.162Z,7.80
2023-02-11T00:45:30.093Z,9.60
2023-02-11T00:47:56.835Z,8.10
2023-02-11T00:50:24.066Z,7.70
2023-02-11T00:52:51.183Z,9.00
2023-02-11T00:55:18.117Z,7.30
2023-02-11T00:57:45.586Z,7.70
2023-02-11T01:00:13.484Z,6.70
2023-02-11T01:02:40.089Z,7.60
2023-02-11T01:05:07.476Z,7.30
2023-02-11T01:07:34.429Z,7.20
2023-02-11T01:10:02.086Z,6.90
2023-02-11T01:12:29.746Z,6.70
2023-02-11T01:14:58.257Z,7.10
2023-02-11T01:17:24.838Z,6.80
2023-02-11T01:19:51.924Z,7.30
2023-02-11T01:22:18.765Z,7.00
2023-02-11T01:24:47.116Z,6.60
2023-02-11T01:27:13.851Z,7.70
2023-02-11T01:29:40.743Z,8.00
2023-02-11T01:32:07.573Z,6.40
2023-02-11T01:34:34.344Z,7.70
2023-02-11T01:37:01.393Z,7.40
2023-02-11T01:39:33.775Z,7.30
2023-02-11T01:42:02.810Z,6.50
2023-02-11T01:44:34.590Z,8.20
2023-02-11T01:47:04.457Z,8.10
2023-02-11T01:49:35.557Z,8.70
2023-02-11T01:52:09.722Z,8.60
2023-02-11T01:55:14.496Z,7.50
2023-02-11T01:57:45.596Z,8.10
2023-02-11T02:00:30.254Z,7.00
2023-02-11T02:02:59.890Z,6.30
2023-02-11T02:05:41.892Z,7.90
2023-02-11T02:08:17.802Z,7.70
2023-02-11T02:10:47.634Z,7.60
2023-02-11T02:13:16.874Z,7.10
2023-02-11T02:15:52.859Z,6.60
2023-02-11T02:18:32.527Z,7.00
2023-02-11T02:21:01.820Z,7.30
2023-02-11T02:23:36.506Z,6.30
2023-02-11T02:26:19.252Z,7.70
2023-02-11T02:28:51.825Z,5.50
2023-02-11T02:31:46.707Z,6.10
2023-02-11T02:34:22.962Z,6.60
2023-02-11T02:37:02.258Z,7.10
2023-02-11T02:39:33.411Z,6.50
2023-02-11T02:42:01.557Z,7.50
2023-02-11T02:44:29.392Z,6.40
2023-02-11T02:46:56.269Z,7.20
2023-02-11T02:49:23.081Z,6.80
2023-02-11T02:52:12.890Z,6.10
2023-02-11T02:55:14.080Z,5.50
2023-02-11T02:57:49.950Z,5.90
2023-02-11T03:00:32.476Z,5.70
2023-02-11T03:03:15.839Z,5.50
2023-02-11T03:06:02.508Z,6.30
2023-02-11T03:08:46.911Z,5.70
2023-02-11T03:11:17.798Z,6.10
2023-02-11T03:13:47.263Z,6.60
2023-02-11T03:16:22.364Z,5.70
2023-02-11T03:18:55.234Z,6.50
2023-02-11T03:21:23.845Z,6.20
2023-02-11T03:23:55.885Z,6.90
2023-02-11T03:26:39.906Z,6.50
2023-02-11T03:29:25.368Z,6.50
2023-02-11T03:32:01.274Z,5.30
2023-02-11T03:34:52.385Z,7.00
2023-02-11T03:37:21.691Z,7.70
2023-02-11T03:39:54.331Z,6.60
2023-02-11T03:42:24.283Z,7.70
2023-02-11T03:45:03.953Z,6.40
2023-02-11T03:47:34.709Z,8.60
2023-02-11T03:50:04.463Z,7.70
2023-02-11T03:52:32.141Z,8.50
2023-02-11T03:55:03.662Z,8.30
2023-02-11T03:57:30.627Z,7.80
2023-02-11T03:59:58.633Z,7.60
2023-02-11T04:02:29.861Z,8.90
2023-02-11T04:04:57.076Z,7.70
2023-02-11T04:07:24.506Z,7.80
2023-02-11T04:09:51.908Z,7.90
2023-02-11T04:12:19.052Z,7.80
2023-02-11T04:14:53.716Z,9.30
2023-02-11T04:17:35.013Z,8.40
2023-02-11T04:20:02.243Z,8.80
2023-02-11T04:22:29.725Z,9.30
2023-02-11T04:24:58.377Z,7.90
2023-02-11T04:27:25.079Z,8.50
2023-02-11T04:29:51.826Z,9.90
2023-02-11T04:32:18.488Z,9.20
2023-02-11T04:34:45.344Z,8.70
2023-02-11T04:37:12.953Z,8.90
2023-02-11T04:39:39.819Z,7.70
2023-02-11T04:42:07.129Z,8.10
2023-02-11T04:44:33.850Z,9.20
2023-02-11T04:47:01.228Z,7.90
2023-02-11T04:49:28.335Z,9.80
2023-02-11T04:51:55.032Z,10.10
2023-02-11T04:54:21.967Z,9.10
2023-02-11T04:56:49.248Z,9.10
2023-02-11T04:59:16.082Z,9.50
2023-02-11T05:01:43.086Z,9.30
2023-02-11T05:04:09.867Z,9.50
2023-02-11T05:06:39.262Z,9.80
2023-02-11T05:09:06.141Z,9.70
2023-02-11T05:11:32.953Z,8.80
2023-02-11T05:13:59.812Z,10.20
2023-02-11T05:16:26.714Z,9.30
2023-02-11T05:18:55.193Z,9.70
2023-02-11T05:21:22.054Z,9.30
2023-02-11T05:23:48.780Z,9.10
2023-02-11T05:26:15.843Z,9.40
2023-02-11T05:28:43.184Z,9.40
2023-02-11T05:31:11.131Z,9.80
2023-02-11T05:33:37.932Z,7.80
2023-02-11T05:36:08.981Z,9.10
2023-02-11T05:38:36.859Z,9.80
2023-02-11T05:41:05.050Z,9.00
2023-02-11T05:43:34.265Z,9.60
2023-02-11T05:46:01.226Z,8.90
2023-02-11T05:48:27.998Z,9.60
2023-02-11T05:50:55.253Z,9.60
2023-02-11T05:53:22.297Z,10.30
2023-02-11T05:55:49.850Z,10.10
2023-02-11T05:58:17.314Z,10.30
2023-02-11T06:00:44.694Z,9.10
2023-02-11T06:03:11.252Z,10.00
2023-02-11T06:05:38.058Z,9.00
2023-02-11T06:08:05.822Z,9.00
2023-02-11T06:10:32.482Z,9.90
2023-02-11T06:12:59.352Z,9.20
2023-02-11T06:15:26.147Z,9.20
2023-02-11T06:17:53.344Z,10.00
2023-02-11T06:20:20.525Z,9.30
2023-02-11T06:22:47.553Z,10.90
2023-02-11T06:25:15.142Z,9.90
2023-02-11T06:27:41.936Z,10.40
2023-02-11T06:30:09.665Z,10.00
2023-02-11T06:32:44.031Z,9.10
2023-02-11T06:35:14.040Z,10.60
2023-02-11T06:37:41.294Z,11.30
2023-02-11T06:40:09.271Z,10.90
2023-02-11T06:42:38.273Z,9.60
2023-02-11T06:45:05.561Z,11.10
2023-02-11T06:47:32.252Z,11.30
2023-02-11T06:49:58.992Z,10.20
2023-02-11T06:52:26.419Z,11.30
2023-02-11T06:54:53.187Z,11.40
2023-02-11T06:57:20.299Z,13.40
2023-02-11T06:59:46.914Z,10.40
2023-02-11T07:02:13.709Z,11.00
2023-02-11T07:04:41.395Z,11.50
2023-02-11T07:07:08.065Z,10.50
2023-02-11T07:09:35.397Z,11.20
2023-02-11T07:12:02.318Z,11.20
2023-02-11T07:14:29.010Z,11.30
2023-02-11T07:16:55.658Z,12.60
2023-02-11T07:19:22.508Z,12.30
2023-02-11T07:21:49.120Z,13.10
2023-02-11T07:24:15.888Z,13.20
2023-02-11T07:26:44.216Z,12.20
2023-02-11T07:29:11.105Z,11.10
2023-02-11T07:31:37.825Z,11.20
2023-02-11T07:34:04.727Z,12.20
2023-02-11T07:36:32.189Z,12.20
2023-02-11T07:38:59.681Z,13.30
2023-02-11T07:41:27.230Z,12.00
2023-02-11T07:43:54.973Z,12.80
2023-02-11T07:46:28.509Z,13.40
2023-02-11T07:48:55.761Z,14.50
2023-02-11T07:51:25.615Z,13.40
2023-02-11T07:53:53.638Z,13.90
2023-02-11T07:56:21.417Z,13.40
2023-02-11T07:58:48.700Z,14.00
2023-02-11T08:01:21.918Z,13.20
2023-02-11T08:03:48.895Z,13.80
2023-02-11T08:06:19.926Z,14.70
2023-02-11T08:08:47.402Z,13.40
2023-02-11T08:11:17.217Z,15.20
2023-02-11T08:13:45.045Z,16.30
2023-02-11T08:16:22.928Z,15.60
2023-02-11T08:18:51.601Z,13.70
2023-02-11T08:21:19.509Z,14.00
2023-02-11T08:23:47.163Z,13.60
2023-02-11T08:26:25.900Z,14.60
2023-02-11T08:28:54.994Z,14.60
2023-02-11T08:34:11.047Z,15.90
2023-02-11T08:36:39.669Z,16.60
2023-02-11T08:39:19.316Z,16.80
2023-02-11T08:41:49.759Z,15.30
2023-02-11T08:44:18.223Z,17.50
2023-02-11T08:46:46.557Z,15.60
2023-02-11T08:49:14.151Z,16.30
2023-02-11T08:51:41.163Z,15.50
2023-02-11T08:54:09.429Z,18.30
2023-02-11T08:56:39.244Z,15.20
2023-02-11T08:59:06.939Z,15.70
2023-02-11T09:01:33.786Z,17.10
2023-02-11T09:04:01.064Z,16.90
2023-02-11T09:06:28.575Z,15.00
2023-02-11T09:08:56.796Z,13.10
2023-02-11T09:11:35.376Z,14.90
2023-02-11T09:14:03.391Z,13.60
2023-02-11T09:16:33.108Z,17.00
2023-02-11T09:19:01.719Z,15.20
2023-02-11T09:21:29.167Z,16.70
2023-02-11T09:23:56.129Z,17.30
2023-02-11T09:26:25.835Z,15.00
2023-02-11T09:28:52.872Z,14.40
2023-02-11T09:31:22.678Z,15.50
2023-02-11T09:33:53.023Z,15.30
2023-02-11T09:36:22.669Z,13.60
2023-02-11T09:38:49.487Z,12.70
2023-02-11T09:41:38.991Z,15.40
2023-02-11T09:44:10.083Z,15.40
2023-02-11T09:46:41.941Z,15.20
2023-02-11T09:49:31.770Z,15.90
2023-02-11T09:52:06.064Z,15.10
2023-02-11T09:55:05.841Z,13.80
2023-02-11T10:00:31.665Z,15.00
2023-02-11T10:03:31.090Z,14.40
2023-02-11T10:06:06.706Z,14.20
2023-02-11T10:09:22.155Z,16.70
2023-02-11T10:11:59.844Z,14.30
2023-02-11T10:15:11.980Z,16.20
2023-02-11T10:17:45.994Z,16.90
2023-02-11T10:20:35.249Z,14.40
2023-02-11T10:23:24.138Z,16.40
2023-02-11T10:25:56.241Z,15.80
2023-02-11T10:28:29.472Z,13.90
2023-02-11T10:31:18.230Z,16.00
2023-02-11T10:33:49.841Z,14.40
2023-02-11T10:36:18.084Z,16.30
2023-02-11T10:38:45.083Z,15.40
2023-02-11T10:41:27.739Z,15.50
2023-02-11T10:43:55.132Z,17.60
2023-02-11T10:46:26.372Z,16.20
2023-02-11T10:48:53.675Z,16.80
2023-02-11T10:51:26.159Z,16.30
2023-02-11T10:54:13.758Z,14.00
2023-02-11T10:56:45.956Z,17.10
2023-02-11T10:59:39.679Z,16.60
2023-02-11T11:02:34.221Z,16.00
2023-02-11T11:05:06.130Z,13.80
2023-02-11T11:07:34.317Z,17.50
2023-02-11T11:10:03.502Z,21.40
2023-02-11T11:12:30.419Z,17.00
2023-02-11T11:15:18.284Z,18.10
2023-02-11T11:18:20.524Z,17.60
2023-02-11T11:21:07.357Z,17.60
2023-02-11T11:23:36.505Z,17.00
2023-02-11T11:26:12.495Z,18.80
2023-02-11T11:28:54.368Z,16.30
2023-02-11T11:31:29.831Z,16.50
2023-02-11T11:33:58.967Z,18.50
2023-02-11T11:36:36.332Z,17.50
2023-02-11T11:39:29.308Z,17.50
2023-02-11T11:41:59.174Z,17.10
2023-02-11T11:44:33.700Z,17.40
2023-02-11T11:47:13.064Z,20.00
2023-02-11T11:50:13.428Z,18.20
2023-02-11T11:52:49.350Z,19.20
2023-02-11T11:55:21.543Z,19.60
2023-02-11T11:57:48.847Z,19.40
2023-02-11T12:00:18.289Z,20.20
2023-02-11T12:03:15.023Z,21.50
2023-02-11T12:06:05.267Z,20.00
2023-02-11T12:08:50.621Z,19.50
2023-02-11T12:11:58.641Z,17.70
2023-02-11T12:14:46.772Z,18.80
2023-02-11T12:17:33.722Z,21.30
2023-02-11T12:20:13.490Z,20.80
2023-02-11T12:23:02.596Z,19.80
2023-02-11T12:25:38.158Z,19.50
2023-02-11T12:28:23.679Z,21.00
2023-02-11T12:30:53.494Z,21.60
2023-02-11T12:33:34.079Z,17.20
2023-02-11T12:36:06.636Z,16.70
2023-02-11T12:38:56.640Z,18.30
2023-02-11T12:41:50.749Z,21.20
2023-02-11T12:44:29.955Z,16.40
2023-02-11T12:47:30.235Z,20.10
2023-02-11T12:50:30.941Z,19.50
2023-02-11T12:53:34.536Z,20.00
2023-02-11T12:56:12.299Z,18.30
2023-02-11T12:58:45.421Z,18.80
2023-02-11T13:01:39.969Z,15.70
2023-02-11T13:04:17.018Z,19.10
2023-02-11T13:06:54.198Z,17.10
2023-02-11T13:09:35.180Z,18.80
2023-02-11T13:12:27.773Z,14.70
2023-02-11T13:14:58.874Z,18.60
2023-02-11T13:17:36.426Z,17.90
2023-02-11T13:20:43.560Z,17.10
2023-02-11T13:23:41.454Z,18.50
2023-02-11T13:26:26.728Z,19.60
2023-02-11T13:29:15.367Z,16.80
2023-02-11T13:31:42.569Z,18.20
2023-02-11T13:34:46.720Z,20.70
2023-02-11T13:37:36.690Z,19.20
2023-02-11T13:40:25.543Z,20.80
2023-02-11T13:42:56.848Z,19.50
2023-02-11T13:45:42.227Z,20.10
2023-02-11T13:48:25.062Z,18.20
2023-02-11T13:50:55.791Z,19.80
2023-02-11T13:53:26.966Z,21.20
2023-02-11T13:56:28.291Z,20.80
2023-02-11T13:58:56.234Z,20.20
2023-02-11T14:01:38.505Z,20.60
2023-02-11T14:04:44.365Z,21.50
2023-02-11T14:07:42.123Z,20.40
2023-02-11T14:10:55.395Z,18.40
2023-02-11T14:13:30.127Z,20.60
2023-02-11T14:16:10.696Z,20.40
2023-02-11T14:19:00.828Z,19.10
2023-02-11T14:21:28.982Z,19.50
2023-02-11T14:24:01.665Z,20.90
2023-02-11T14:26:41.159Z,20.00
2023-02-11T14:29:17.498Z,16.60
2023-02-11T14:32:21.640Z,20.20
2023-02-11T14:34:56.123Z,18.20
2023-02-11T14:37:50.459Z,19.70
2023-02-11T14:40:20.696Z,20.00
2023-02-11T14:42:47.506Z,20.40
2023-02-11T14:45:22.471Z,21.10
2023-02-11T14:48:01.064Z,22.00
2023-02-11T14:50:38.409Z,17.70
2023-02-11T14:53:12.252Z,18.80
2023-02-11T14:55:42.974Z,18.60
2023-02-11T14:58:17.167Z,18.00
2023-02-11T15:00:53.821Z,18.80
2023-02-11T15:03:42.220Z,18.20
2023-02-11T15:06:15.046Z,17.80
2023-02-11T15:08:46.513Z,18.00
2023-02-11T15:11:17.511Z,18.50
2023-02-11T15:13:49.102Z,17.20
2023-02-11T15:16:20.246Z,18.80
2023-02-11T15:18:52.691Z,18.40
2023-02-11T15:21:26.107Z,16.60
2023-02-11T15:24:03.515Z,17.40
2023-02-11T15:26:30.341Z,15.60
2023-02-11T15:28:57.186Z,20.10
2023-02-11T15:31:26.266Z,17.70
2023-02-11T15:34:07.470Z,17.30
2023-02-11T15:36:35.765Z,16.40
2023-02-11T15:39:17.650Z,16.50
2023-02-11T15:41:44.973Z,16.30
2023-02-11T15:44:32.835Z,16.00
2023-02-11T15:46:59.885Z,15.00
2023-02-11T15:49:26.874Z,16.70
2023-02-11T15:51:57.218Z,15.30
2023-02-11T15:54:28.750Z,15.30
2023-02-11T15:57:04.265Z,16.30
2023-02-11T15:59:35.556Z,14.50
2023-02-11T16:02:09.687Z,14.10
2023-02-11T16:04:37.153Z,15.00
2023-02-11T16:07:04.644Z,14.00
2023-02-11T16:09:34.563Z,15.00
2023-02-11T16:12:22.431Z,13.60
2023-02-11T16:14:49.402Z,14.30
2023-02-11T16:17:26.816Z,13.90
2023-02-11T16:19:54.368Z,15.30
2023-02-11T16:22:29.461Z,16.00
2023-02-11T16:24:59.602Z,16.00
2023-02-11T16:27:31.680Z,13.70
2023-02-11T16:29:58.611Z,11.90
2023-02-11T16:32:28.697Z,14.30
2023-02-11T16:35:00.121Z,11.40
2023-02-11T16:37:26.923Z,14.20
2023-02-11T16:39:58.342Z,15.50
2023-02-11T16:42:26.148Z,14.60
2023-02-11T16:44:53.330Z,13.50
2023-02-11T16:47:29.311Z,14.40
2023-02-11T16:49:57.082Z,13.50
2023-02-11T16:52:25.140Z,13.60
2023-02-11T16:55:00.113Z,15.40
2023-02-11T16:57:30.307Z,12.70
2023-02-11T17:00:01.487Z,13.40
2023-02-11T17:02:32.361Z,14.50
2023-02-11T17:05:03.322Z,14.30
2023-02-11T17:07:31.430Z,13.30
2023-02-11T17:09:58.334Z,13.30
2023-02-11T17:12:26.165Z,13.50
2023-02-11T17:14:58.837Z,14.20
2023-02-11T17:17:25.581Z,12.80
2023-02-11T17:19:52.377Z,12.40
2023-02-11T17:22:19.627Z,12.80
2023-02-11T17:24:46.238Z,12.10
2023-02-11T17:27:13.562Z,9.90
2023-02-11T17:29:40.505Z,13.20
2023-02-11T17:32:07.986Z,13.80
2023-02-11T17:34:35.153Z,11.80
2023-02-11T17:37:08.408Z,13.40
2023-02-11T17:39:36.631Z,13.20
2023-02-11T17:42:04.971Z,11.30
2023-02-11T17:44:35.144Z,12.10
2023-02-11T17:47:02.078Z,11.30
2023-02-11T17:49:29.269Z,10.60
2023-02-11T17:51:56.747Z,12.20
2023-02-11T17:54:24.320Z,12.70
2023-02-11T17:56:54.594Z,11.70
2023-02-11T17:59:22.625Z,11.00
2023-02-11T18:01:49.574Z,10.70
2023-02-11T18:04:18.523Z,12.70
2023-02-11T18:06:45.915Z,12.10
2023-02-11T18:09:13.465Z,13.20
2023-02-11T18:11:41.357Z,12.10
2023-02-11T18:14:09.860Z,10.20
2023-02-11T18:16:42.611Z,12.40
2023-02-11T18:19:10.959Z,12.20
2023-02-11T18:21:38.122Z,11.30
2023-02-11T18:24:06.970Z,13.20
2023-02-11T18:26:35.111Z,12.70
2023-02-11T18:29:03.280Z,12.50
2023-02-11T18:31:30.165Z,14.50
2023-02-11T18:33:58.181Z,13.10
2023-02-11T18:36:24.859Z,12.60
2023-02-11T18:38:53.268Z,13.60
2023-02-11T18:41:20.550Z,11.30
2023-02-11T18:43:48.385Z,12.40
2023-02-11T18:46:17.372Z,13.50
2023-02-11T18:48:45.728Z,13.60
2023-02-11T18:51:15.483Z,12.90
2023-02-11T18:53:42.938Z,13.30
2023-02-11T18:56:17.052Z,11.40
2023-02-11T18:58:43.921Z,12.00
2023-02-11T19:01:20.322Z,12.40
2023-02-11T19:03:48.220Z,13.90
2023-02-11T19:06:26.834Z,14.70
2023-02-11T19:09:00.250Z,13.30
2023-02-11T19:11:53.376Z,13.70
2023-02-11T19:14:26.746Z,12.20
2023-02-11T19:16:56.239Z,13.70
2023-02-11T19:19:25.163Z,12.40
2023-02-11T19:21:54.329Z,11.00
2023-02-11T19:24:22.419Z,13.50
2023-02-11T19:26:51.467Z,12.30
2023-02-11T19:29:19.716Z,12.00
2023-02-11T19:31:47.116Z,11.90
2023-02-11T19:34:15.499Z,12.00
2023-02-11T19:36:43.232Z,9.80
2023-02-11T19:39:10.291Z,10.10
2023-02-11T19:41:37.301Z,9.80
2023-02-11T19:44:07.777Z,9.80
2023-02-11T19:46:40.219Z,9.60
2023-02-11T19:49:07.704Z,9.10
2023-02-11T19:51:38.549Z,7.90
2023-02-11T19:54:06.434Z,9.30
2023-02-11T19:56:33.643Z,8.90
2023-02-11T19:59:01.973Z,8.00
2023-02-11T20:01:29.463Z,8.30
2023-02-11T20:03:57.168Z,8.90
2023-02-11T20:06:27.420Z,7.50
2023-02-11T20:08:59.591Z,8.00
2023-02-11T20:11:29.114Z,7.10
2023-02-11T20:13:57.386Z,6.20
2023-02-11T20:16:44.565Z,5.00
2023-02-11T20:19:17.353Z,6.00
2023-02-11T20:21:46.978Z,5.80
2023-02-11T20:24:15.694Z,5.00
2023-02-11T20:26:42.971Z,5.60
2023-02-11T20:29:09.604Z,5.70
2023-02-11T20:31:37.138Z,6.10
2023-02-11T20:34:04.117Z,5.40
2023-02-11T20:36:34.979Z,5.10
2023-02-11T20:39:04.248Z,4.60
2023-02-11T20:41:34.568Z,4.90
2023-02-11T20:44:04.362Z,4.30
2023-02-11T20:46:33.149Z,5.80
2023-02-11T20:49:01.258Z,5.40
2023-02-11T20:51:31.661Z,5.30
2023-02-11T20:53:59.031Z,5.20
2023-02-11T20:56:29.641Z,5.60
2023-02-11T20:58:57.900Z,4.80
2023-02-11T21:01:27.998Z,4.60
2023-02-11T21:04:02.596Z,5.30
2023-02-11T21:06:35.472Z,5.00
2023-02-11T21:09:06.149Z,4.50
2023-02-11T21:11:33.819Z,4.50
2023-02-11T21:14:01.752Z,5.30
2023-02-11T21:16:28.785Z,5.10
2023-02-11T21:18:56.386Z,4.60
2023-02-11T21:21:23.741Z,4.80
2023-02-11T21:23:50.563Z,4.80
2023-02-11T21:26:17.384Z,4.10
2023-02-11T21:28:44.343Z,5.50
2023-02-11T21:31:26.309Z,4.30
2023-02-11T21:34:08.139Z,5.00
2023-02-11T21:36:35.327Z,4.70
2023-02-11T21:39:03.266Z,5.50
2023-02-11T21:41:30.131Z,4.40
2023-02-11T21:43:57.236Z,4.50
2023-02-11T21:46:24.486Z,5.50
2023-02-11T21:48:51.684Z,4.10
2023-02-11T21:51:26.624Z,3.30
2023-02-11T21:53:59.007Z,2.50
2023-02-11T21:56:27.560Z,1.30
2023-02-11T21:58:56.064Z,3.30
2023-02-11T22:01:31.557Z,1.80
2023-02-11T22:03:59.486Z,0.70
2023-02-11T22:06:32.961Z,0.30
2023-02-11T22:09:07.914Z,1.00
2023-02-11T22:11:35.275Z,1.60
2023-02-11T22:14:02.299Z,0.90
2023-02-11T22:16:30.691Z,1.50
2023-02-11T22:19:12.884Z,1.10
2023-02-11T22:21:40.049Z,1.60
2023-02-11T22:24:06.836Z,2.10
2023-02-11T22:26:33.535Z,1.50
2023-02-11T22:29:01.058Z,1.70
2023-02-11T22:31:33.257Z,1.80
2023-02-11T22:34:01.120Z,0.40
2023-02-11T22:36:39.729Z,0.90
2023-02-11T22:39:10.221Z,0.50
2023-02-11T22:41:37.972Z,0.50
2023-02-11T22:44:05.031Z,0.20
2023-02-11T22:46:32.074Z,0.20
2023-02-11T22:48:58.884Z,0.20
2023-02-11T22:51:28.228Z,0.20
2023-02-11T22:54:06.266Z,0.20
2023-02-11T22:56:34.820Z,0.20
2023-02-11T22:59:04.868Z,0.10
2023-02-11T23:01:31.843Z,0.20
2023-02-11T23:04:00.953Z,0.20
2023-02-11T23:06:38.192Z,0.20
2023-02-11T23:09:14.147Z,0.10
2023-02-11T23:11:41.170Z,0.10
2023-02-11T23:14:09.668Z,0.20
2023-02-11T23:16:36.804Z,0.10
2023-02-11T23:19:06.744Z,0.20
2023-02-11T23:21:37.092Z,0.20
2023-02-11T23:24:07.993Z,0.10
2023-02-11T23:26:37.696Z,0.20
2023-02-11T23:29:04.940Z,0.10
2023-02-11T23:31:34.761Z,0.10
2023-02-11T23:34:06.138Z,0.10
2023-02-11T23:36:33.018Z,0.20
2023-02-11T23:39:00.180Z,0.10
2023-02-11T23:41:27.019Z,0.30
2023-02-11T23:43:56.970Z,0.10
2023-02-11T23:46:25.803Z,0.10
2023-02-11T23:48:53.129Z,0.10
2023-02-11T23:51:20.332Z,0.10
2023-02-11T23:53:48.987Z,0.00
2023-02-11T23:56:18.853Z,0.10
2023-02-11T23:58:49.731Z,0.00
